sensor_id;sensor_type;location;lat;lon;timestamp;temperature;humidity
4548;DHT22;2286;51.570;7.090;2023-04-01T00:02:01;9.40;99.90
4548;DHT22;2286;51.570;7.090;2023-04-01T00:04:28;9.40;99.90
4548;DHT22;2286;51.570;7.090;2023-04-01T00:06:55;9.40;75.40
4548;DHT22;2286;51.570;7.090;2023-04-01T00:09:22;9.30;1.00
4548;DHT22;2286;51.570;7.090;2023-04-01T00:11:50;9.30;1.00
4548;DHT22;2286;51.570;7.090;2023-04-01T00:14:17;9.30;1.00
4548;DHT22;2286;51.570;7.090;2023-04-01T00:16:44;9.30;99.90
4548;DHT22;2286;51.570;7.090;2023-04-01T00:19:12;9.30;99.90
4548;DHT22;2286;51.570;7.090;2023-04-01T00:21:40;9.30;1.00
4548;DHT22;2286;51.570;7.090;2023-04-01T00:24:07;9.30;99.90
4548;DHT22;2286;51.570;7.090;2023-04-01T00:26:34;9.30;99.90
4548;DHT22;2286;51.570;7.090;2023-04-01T00:29:01;9.30;1.00
4548;DHT22;2286;51.570;7.090;2023-04-01T00:31:28;9.30;1.00
4548;DHT22;2286;51.570;7.090;2023-04-01T00:33:55;9.30;1.00
4548;DHT22;2286;51.570;7.090;2023-04-01T00:36:24;9.30;1.00
4548;DHT22;2286;51.570;7.090;2023-04-01T00:38:51;9.30;9.10
4548;DHT22;2286;51.570;7.090;2023-04-01T00:41:19;9.30;36.90
4548;DHT22;2286;51.570;7.090;2023-04-01T00:43:48;9.30;49.20
4548;DHT22;2286;51.570;7.090;2023-04-01T00:46:16;9.30;12.70
4548;DHT22;2286;51.570;7.090;2023-04-01T00:48:46;9.20;1.00
4548;DHT22;2286;51.570;7.090;2023-04-01T00:51:17;9.20;17.90
4548;DHT22;2286;51.570;7.090;2023-04-01T00:53:50;9.30;45.50
4548;DHT22;2286;51.570;7.090;2023-04-01T00:56:19;9.20;99.90
4548;DHT22;2286;51.570;7.090;2023-04-01T00:58:51;9.30;99.90
4548;DHT22;2286;51.570;7.090;2023-04-01T01:01:20;9.20;99.90
4548;DHT22;2286;51.570;7.090;2023-04-01T01:03:48;9.30;99.90
4548;DHT22;2286;51.570;7.090;2023-04-01T01:06:23;9.20;99.90
4548;DHT22;2286;51.570;7.090;2023-04-01T01:09:06;9.20;99.90
4548;DHT22;2286;51.570;7.090;2023-04-01T01:11:41;9.20;99.90
4548;DHT22;2286;51.570;7.090;2023-04-01T01:14:16;9.20;99.90
4548;DHT22;2286;51.570;7.090;2023-04-01T01:16:50;9.20;99.90
4548;DHT22;2286;51.570;7.090;2023-04-01T01:22:35;9.20;99.90
4548;DHT22;2286;51.570;7.090;2023-04-01T01:25:18;9.20;99.90
4548;DHT22;2286;51.570;7.090;2023-04-01T01:27:54;9.20;99.90
4548;DHT22;2286;51.570;7.090;2023-04-01T01:30:37;9.20;99.90
4548;DHT22;2286;51.570;7.090;2023-04-01T01:33:32;9.20;99.90
4548;DHT22;2286;51.570;7.090;2023-04-01T01:36:04;9.20;99.90
4548;DHT22;2286;51.570;7.090;2023-04-01T01:38:34;9.20;99.90
4548;DHT22;2286;51.570;7.090;2023-04-01T01:41:04;9.20;99.90
4548;DHT22;2286;51.570;7.090;2023-04-01T01:43:33;9.20;99.90
4548;DHT22;2286;51.570;7.090;2023-04-01T01:46:05;9.10;99.90
4548;DHT22;2286;51.570;7.090;2023-04-01T01:48:35;9.10;99.90
4548;DHT22;2286;51.570;7.090;2023-04-01T01:51:05;9.20;99.90
4548;DHT22;2286;51.570;7.090;2023-04-01T01:53:33;9.10;99.90
4548;DHT22;2286;51.570;7.090;2023-04-01T01:56:00;9.10;99.90
4548;DHT22;2286;51.570;7.090;2023-04-01T01:58:31;9.10;99.90
4548;DHT22;2286;51.570;7.090;2023-04-01T02:01:03;9.10;99.90
4548;DHT22;2286;51.570;7.090;2023-04-01T02:03:33;9.10;99.90
4548;DHT22;2286;51.570;7.090;2023-04-01T02:06:05;9.10;99.90
4548;DHT22;2286;51.570;7.090;2023-04-01T02:08:35;9.10;99.90
4548;DHT22;2286;51.570;7.090;2023-04-01T02:11:06;9.10;99.90
4548;DHT22;2286;51.570;7.090;2023-04-01T02:13:38;9.10;99.90
4548;DHT22;2286;51.570;7.090;2023-04-01T02:16:13;9.10;99.90
4548;DHT22;2286;51.570;7.090;2023-04-01T02:18:43;9.10;99.90
4548;DHT22;2286;51.570;7.090;2023-04-01T02:21:14;9.10;99.90
4548;DHT22;2286;51.570;7.090;2023-04-01T02:23:42;9.10;99.90
4548;DHT22;2286;51.570;7.090;2023-04-01T02:26:09;9.00;99.90
4548;DHT22;2286;51.570;7.090;2023-04-01T02:28:38;9.10;99.90
4548;DHT22;2286;51.570;7.090;2023-04-01T02:31:08;9.10;99.90
4548;DHT22;2286;51.570;7.090;2023-04-01T02:33:38;9.10;99.90
4548;DHT22;2286;51.570;7.090;2023-04-01T02:36:06;9.10;99.90
4548;DHT22;2286;51.570;7.090;2023-04-01T02:38:38;9.10;99.90
4548;DHT22;2286;51.570;7.090;2023-04-01T02:41:06;9.10;99.90
4548;DHT22;2286;51.570;7.090;2023-04-01T02:43:33;9.10;99.90
4548;DHT22;2286;51.570;7.090;2023-04-01T02:46:00;9.10;99.90
4548;DHT22;2286;51.570;7.090;2023-04-01T02:48:27;9.10;99.90
4548;DHT22;2286;51.570;7.090;2023-04-01T02:50:54;9.10;99.90
4548;DHT22;2286;51.570;7.090;2023-04-01T02:53:21;9.10;99.90
4548;DHT22;2286;51.570;7.090;2023-04-01T02:55:56;9.10;99.90
4548;DHT22;2286;51.570;7.090;2023-04-01T02:58:23;9.00;99.90
4548;DHT22;2286;51.570;7.090;2023-04-01T03:00:50;9.10;99.90
4548;DHT22;2286;51.570;7.090;2023-04-01T03:03:17;9.10;99.90
4548;DHT22;2286;51.570;7.090;2023-04-01T03:05:44;9.10;99.90
4548;DHT22;2286;51.570;7.090;2023-04-01T03:08:11;9.10;99.90
4548;DHT22;2286;51.570;7.090;2023-04-01T03:10:38;9.00;99.90
4548;DHT22;2286;51.570;7.090;2023-04-01T03:13:07;9.00;99.90
4548;DHT22;2286;51.570;7.090;2023-04-01T03:15:33;9.00;99.90
4548;DHT22;2286;51.570;7.090;2023-04-01T03:18:01;9.00;99.90
4548;DHT22;2286;51.570;7.090;2023-04-01T03:20:28;9.00;99.90
4548;DHT22;2286;51.570;7.090;2023-04-01T03:22:55;9.00;99.90
4548;DHT22;2286;51.570;7.090;2023-04-01T03:25:22;9.00;99.90
4548;DHT22;2286;51.570;7.090;2023-04-01T03:27:50;9.00;99.90
4548;DHT22;2286;51.570;7.090;2023-04-01T03:30:18;9.00;99.90
4548;DHT22;2286;51.570;7.090;2023-04-01T03:32:45;9.00;99.90
4548;DHT22;2286;51.570;7.090;2023-04-01T03:35:12;9.00;99.90
4548;DHT22;2286;51.570;7.090;2023-04-01T03:37:39;9.00;99.90
4548;DHT22;2286;51.570;7.090;2023-04-01T03:40:07;9.00;99.90
4548;DHT22;2286;51.570;7.090;2023-04-01T03:42:35;9.00;99.90
4548;DHT22;2286;51.570;7.090;2023-04-01T03:45:02;9.00;99.90
4548;DHT22;2286;51.570;7.090;2023-04-01T03:47:31;9.00;99.90
4548;DHT22;2286;51.570;7.090;2023-04-01T03:49:58;9.00;99.90
4548;DHT22;2286;51.570;7.090;2023-04-01T03:52:25;9.00;99.90
4548;DHT22;2286;51.570;7.090;2023-04-01T03:54:52;9.10;99.90
4548;DHT22;2286;51.570;7.090;2023-04-01T03:57:19;9.10;99.90
4548;DHT22;2286;51.570;7.090;2023-04-01T03:59:46;9.10;99.90
4548;DHT22;2286;51.570;7.090;2023-04-01T04:02:13;9.10;99.90
4548;DHT22;2286;51.570;7.090;2023-04-01T04:04:41;9.10;99.90
4548;DHT22;2286;51.570;7.090;2023-04-01T04:07:08;9.10;99.90
4548;DHT22;2286;51.570;7.090;2023-04-01T04:09:35;9.10;99.90
4548;DHT22;2286;51.570;7.090;2023-04-01T04:12:02;9.10;99.90
4548;DHT22;2286;51.570;7.090;2023-04-01T04:14:31;9.10;99.90
4548;DHT22;2286;51.570;7.090;2023-04-01T04:16:58;9.10;99.90
4548;DHT22;2286;51.570;7.090;2023-04-01T04:19:25;9.20;99.90
4548;DHT22;2286;51.570;7.090;2023-04-01T04:21:53;9.20;99.90
4548;DHT22;2286;51.570;7.090;2023-04-01T04:24:20;9.20;99.90
4548;DHT22;2286;51.570;7.090;2023-04-01T04:26:47;9.20;99.90
4548;DHT22;2286;51.570;7.090;2023-04-01T04:29:14;9.20;99.90
4548;DHT22;2286;51.570;7.090;2023-04-01T04:31:41;9.20;99.90
4548;DHT22;2286;51.570;7.090;2023-04-01T04:34:08;9.20;99.90
4548;DHT22;2286;51.570;7.090;2023-04-01T04:36:35;9.20;99.90
4548;DHT22;2286;51.570;7.090;2023-04-01T04:39:04;9.10;99.90
4548;DHT22;2286;51.570;7.090;2023-04-01T04:41:31;9.10;99.90
4548;DHT22;2286;51.570;7.090;2023-04-01T04:43:58;9.10;99.90
4548;DHT22;2286;51.570;7.090;2023-04-01T04:46:25;9.10;99.90
4548;DHT22;2286;51.570;7.090;2023-04-01T04:48:52;9.10;99.90
4548;DHT22;2286;51.570;7.090;2023-04-01T04:51:20;9.10;99.90
4548;DHT22;2286;51.570;7.090;2023-04-01T04:53:48;9.20;99.90
4548;DHT22;2286;51.570;7.090;2023-04-01T04:56:19;9.20;99.90
4548;DHT22;2286;51.570;7.090;2023-04-01T04:58:47;9.10;99.90
4548;DHT22;2286;51.570;7.090;2023-04-01T05:01:16;9.10;99.90
4548;DHT22;2286;51.570;7.090;2023-04-01T05:03:43;9.10;99.90
4548;DHT22;2286;51.570;7.090;2023-04-01T05:06:13;9.10;99.90
4548;DHT22;2286;51.570;7.090;2023-04-01T05:08:40;9.10;99.90
4548;DHT22;2286;51.570;7.090;2023-04-01T05:11:10;9.10;99.90
4548;DHT22;2286;51.570;7.090;2023-04-01T05:13:40;9.10;99.90
4548;DHT22;2286;51.570;7.090;2023-04-01T05:16:08;9.20;99.90
4548;DHT22;2286;51.570;7.090;2023-04-01T05:18:36;9.20;99.90
4548;DHT22;2286;51.570;7.090;2023-04-01T05:21:03;9.20;99.90
4548;DHT22;2286;51.570;7.090;2023-04-01T05:23:31;9.10;99.90
4548;DHT22;2286;51.570;7.090;2023-04-01T05:25:58;9.20;99.90
4548;DHT22;2286;51.570;7.090;2023-04-01T05:28:25;9.20;99.90
4548;DHT22;2286;51.570;7.090;2023-04-01T05:30:53;9.10;99.90
4548;DHT22;2286;51.570;7.090;2023-04-01T05:33:20;9.20;99.90
4548;DHT22;2286;51.570;7.090;2023-04-01T05:35:47;9.20;99.90
4548;DHT22;2286;51.570;7.090;2023-04-01T05:38:14;9.20;99.90
4548;DHT22;2286;51.570;7.090;2023-04-01T05:40:41;9.20;99.90
4548;DHT22;2286;51.570;7.090;2023-04-01T05:43:08;9.20;99.90
4548;DHT22;2286;51.570;7.090;2023-04-01T05:45:35;9.20;99.90
4548;DHT22;2286;51.570;7.090;2023-04-01T05:48:04;9.20;99.90
4548;DHT22;2286;51.570;7.090;2023-04-01T05:50:31;9.20;99.90
4548;DHT22;2286;51.570;7.090;2023-04-01T05:52:59;9.20;99.90
4548;DHT22;2286;51.570;7.090;2023-04-01T05:55:26;9.20;99.90
4548;DHT22;2286;51.570;7.090;2023-04-01T05:57:53;9.20;99.90
4548;DHT22;2286;51.570;7.090;2023-04-01T06:00:20;9.20;99.90
4548;DHT22;2286;51.570;7.090;2023-04-01T06:02:47;9.20;99.90
4548;DHT22;2286;51.570;7.090;2023-04-01T06:05:18;9.20;99.90
4548;DHT22;2286;51.570;7.090;2023-04-01T06:07:46;9.20;99.90
4548;DHT22;2286;51.570;7.090;2023-04-01T06:10:15;9.20;99.90
4548;DHT22;2286;51.570;7.090;2023-04-01T06:12:53;9.30;99.90
4548;DHT22;2286;51.570;7.090;2023-04-01T06:15:29;9.30;99.90
4548;DHT22;2286;51.570;7.090;2023-04-01T06:21:48;9.20;99.90
4548;DHT22;2286;51.570;7.090;2023-04-01T06:24:43;9.30;99.90
4548;DHT22;2286;51.570;7.090;2023-04-01T06:27:20;9.30;99.90
4548;DHT22;2286;51.570;7.090;2023-04-01T06:30:06;9.20;99.90
4548;DHT22;2286;51.570;7.090;2023-04-01T06:35:36;9.30;99.90
4548;DHT22;2286;51.570;7.090;2023-04-01T06:38:29;9.30;99.90
4548;DHT22;2286;51.570;7.090;2023-04-01T06:41:13;9.30;99.90
4548;DHT22;2286;51.570;7.090;2023-04-01T06:43:51;9.30;99.90
4548;DHT22;2286;51.570;7.090;2023-04-01T06:46:28;9.30;99.90
4548;DHT22;2286;51.570;7.090;2023-04-01T06:49:07;9.30;99.90
4548;DHT22;2286;51.570;7.090;2023-04-01T06:51:43;9.30;99.90
4548;DHT22;2286;51.570;7.090;2023-04-01T06:54:17;9.30;99.90
4548;DHT22;2286;51.570;7.090;2023-04-01T06:56:48;9.20;99.90
4548;DHT22;2286;51.570;7.090;2023-04-01T06:59:18;9.20;99.90
4548;DHT22;2286;51.570;7.090;2023-04-01T07:01:50;9.30;99.90
4548;DHT22;2286;51.570;7.090;2023-04-01T07:04:20;9.30;99.90
4548;DHT22;2286;51.570;7.090;2023-04-01T07:06:52;9.30;99.90
4548;DHT22;2286;51.570;7.090;2023-04-01T07:09:25;9.30;99.90
4548;DHT22;2286;51.570;7.090;2023-04-01T07:11:55;9.30;99.90
4548;DHT22;2286;51.570;7.090;2023-04-01T07:14:30;9.30;99.90
4548;DHT22;2286;51.570;7.090;2023-04-01T07:17:01;9.30;99.90
4548;DHT22;2286;51.570;7.090;2023-04-01T07:19:39;9.30;99.90
4548;DHT22;2286;51.570;7.090;2023-04-01T07:22:17;9.30;99.90
4548;DHT22;2286;51.570;7.090;2023-04-01T07:24:48;9.30;99.90
4548;DHT22;2286;51.570;7.090;2023-04-01T07:27:15;9.40;99.90
4548;DHT22;2286;51.570;7.090;2023-04-01T07:29:42;9.30;99.90
4548;DHT22;2286;51.570;7.090;2023-04-01T07:32:23;9.40;99.90
4548;DHT22;2286;51.570;7.090;2023-04-01T07:35:04;9.40;99.90
4548;DHT22;2286;51.570;7.090;2023-04-01T07:37:38;9.40;99.90
4548;DHT22;2286;51.570;7.090;2023-04-01T07:40:19;9.40;99.90
4548;DHT22;2286;51.570;7.090;2023-04-01T07:43:02;9.40;99.90
4548;DHT22;2286;51.570;7.090;2023-04-01T07:45:33;9.40;99.90
4548;DHT22;2286;51.570;7.090;2023-04-01T07:48:13;9.50;99.90
4548;DHT22;2286;51.570;7.090;2023-04-01T07:50:48;9.40;99.90
4548;DHT22;2286;51.570;7.090;2023-04-01T07:53:23;9.40;99.90
4548;DHT22;2286;51.570;7.090;2023-04-01T07:55:58;9.50;99.90
4548;DHT22;2286;51.570;7.090;2023-04-01T07:58:31;9.40;99.90
4548;DHT22;2286;51.570;7.090;2023-04-01T08:01:05;9.50;99.90
4548;DHT22;2286;51.570;7.090;2023-04-01T08:03:48;9.50;99.90
4548;DHT22;2286;51.570;7.090;2023-04-01T08:06:25;9.40;99.90
4548;DHT22;2286;51.570;7.090;2023-04-01T08:09:01;9.40;99.90
4548;DHT22;2286;51.570;7.090;2023-04-01T08:11:43;9.40;99.90
4548;DHT22;2286;51.570;7.090;2023-04-01T08:14:19;9.50;99.90
4548;DHT22;2286;51.570;7.090;2023-04-01T08:16:52;9.50;99.90
4548;DHT22;2286;51.570;7.090;2023-04-01T08:19:32;9.50;99.90
4548;DHT22;2286;51.570;7.090;2023-04-01T08:22:07;9.50;99.90
4548;DHT22;2286;51.570;7.090;2023-04-01T08:24:41;9.60;99.90
4548;DHT22;2286;51.570;7.090;2023-04-01T08:27:15;9.60;99.90
4548;DHT22;2286;51.570;7.090;2023-04-01T08:29:48;9.50;99.90
4548;DHT22;2286;51.570;7.090;2023-04-01T08:32:18;9.50;99.90
4548;DHT22;2286;51.570;7.090;2023-04-01T08:34:53;9.60;99.90
4548;DHT22;2286;51.570;7.090;2023-04-01T08:37:24;9.60;99.90
4548;DHT22;2286;51.570;7.090;2023-04-01T08:39:56;9.60;99.90
4548;DHT22;2286;51.570;7.090;2023-04-01T08:42:45;9.60;99.90
4548;DHT22;2286;51.570;7.090;2023-04-01T08:45:44;9.60;99.90
4548;DHT22;2286;51.570;7.090;2023-04-01T08:48:37;9.60;99.90
4548;DHT22;2286;51.570;7.090;2023-04-01T08:51:20;9.70;99.90
4548;DHT22;2286;51.570;7.090;2023-04-01T08:54:10;9.60;99.90
4548;DHT22;2286;51.570;7.090;2023-04-01T08:56:46;9.60;99.90
4548;DHT22;2286;51.570;7.090;2023-04-01T08:59:31;9.70;99.90
4548;DHT22;2286;51.570;7.090;2023-04-01T09:02:22;9.70;99.90
4548;DHT22;2286;51.570;7.090;2023-04-01T09:08:16;9.70;99.90
4548;DHT22;2286;51.570;7.090;2023-04-01T09:10:59;9.70;99.90
4548;DHT22;2286;51.570;7.090;2023-04-01T09:13:41;9.70;99.90
4548;DHT22;2286;51.570;7.090;2023-04-01T09:19:21;9.70;99.90
4548;DHT22;2286;51.570;7.090;2023-04-01T09:22:06;9.70;99.90
4548;DHT22;2286;51.570;7.090;2023-04-01T09:27:45;9.90;99.90
4548;DHT22;2286;51.570;7.090;2023-04-01T09:30:41;9.90;99.90
4548;DHT22;2286;51.570;7.090;2023-04-01T09:34:00;9.90;99.90
4548;DHT22;2286;51.570;7.090;2023-04-01T09:36:43;9.80;99.90
4548;DHT22;2286;51.570;7.090;2023-04-01T09:39:34;9.90;99.90
4548;DHT22;2286;51.570;7.090;2023-04-01T09:42:15;9.90;99.90
4548;DHT22;2286;51.570;7.090;2023-04-01T09:44:49;9.90;99.90
4548;DHT22;2286;51.570;7.090;2023-04-01T09:47:34;9.90;99.90
4548;DHT22;2286;51.570;7.090;2023-04-01T09:50:31;10.00;99.90
4548;DHT22;2286;51.570;7.090;2023-04-01T09:53:09;10.10;99.90
4548;DHT22;2286;51.570;7.090;2023-04-01T10:02:19;10.10;99.90
4548;DHT22;2286;51.570;7.090;2023-04-01T10:08:24;10.00;99.90
4548;DHT22;2286;51.570;7.090;2023-04-01T10:11:20;10.10;99.90
4548;DHT22;2286;51.570;7.090;2023-04-01T10:20:25;10.20;99.90
4548;DHT22;2286;51.570;7.090;2023-04-01T10:29:39;10.30;99.90
4548;DHT22;2286;51.570;7.090;2023-04-01T10:32:31;10.30;99.90
4548;DHT22;2286;51.570;7.090;2023-04-01T10:35:23;10.20;99.90
4548;DHT22;2286;51.570;7.090;2023-04-01T10:38:13;10.30;99.90
4548;DHT22;2286;51.570;7.090;2023-04-01T10:41:08;10.30;25.10
4548;DHT22;2286;51.570;7.090;2023-04-01T10:44:20;10.40;36.00
4548;DHT22;2286;51.570;7.090;2023-04-01T10:50:28;10.40;1.00
4548;DHT22;2286;51.570;7.090;2023-04-01T10:53:28;10.30;1.00
4548;DHT22;2286;51.570;7.090;2023-04-01T10:56:40;10.30;50.50
4548;DHT22;2286;51.570;7.090;2023-04-01T11:05:39;10.30;99.90
4548;DHT22;2286;51.570;7.090;2023-04-01T11:08:46;10.40;99.90
4548;DHT22;2286;51.570;7.090;2023-04-01T11:23:34;10.40;99.90
4548;DHT22;2286;51.570;7.090;2023-04-01T11:26:09;10.40;99.90
4548;DHT22;2286;51.570;7.090;2023-04-01T11:31:40;10.50;99.90
4548;DHT22;2286;51.570;7.090;2023-04-01T11:34:20;10.70;99.90
4548;DHT22;2286;51.570;7.090;2023-04-01T11:37:02;10.60;99.90
4548;DHT22;2286;51.570;7.090;2023-04-01T11:39:37;10.60;70.80
4548;DHT22;2286;51.570;7.090;2023-04-01T11:42:20;10.60;1.00
4548;DHT22;2286;51.570;7.090;2023-04-01T11:44:57;10.50;1.00
4548;DHT22;2286;51.570;7.090;2023-04-01T11:47:44;10.60;1.00
4548;DHT22;2286;51.570;7.090;2023-04-01T11:50:20;10.50;99.90
4548;DHT22;2286;51.570;7.090;2023-04-01T11:53:24;10.60;99.90
4548;DHT22;2286;51.570;7.090;2023-04-01T11:56:13;10.60;99.90
4548;DHT22;2286;51.570;7.090;2023-04-01T11:59:02;10.50;1.00
4548;DHT22;2286;51.570;7.090;2023-04-01T12:01:47;10.50;1.00
4548;DHT22;2286;51.570;7.090;2023-04-01T12:04:43;10.50;1.00
4548;DHT22;2286;51.570;7.090;2023-04-01T12:07:19;10.40;1.00
4548;DHT22;2286;51.570;7.090;2023-04-01T12:09:57;10.40;69.30
4548;DHT22;2286;51.570;7.090;2023-04-01T12:12:35;10.40;99.90
4548;DHT22;2286;51.570;7.090;2023-04-01T12:15:15;10.30;99.90
4548;DHT22;2286;51.570;7.090;2023-04-01T12:17:47;10.30;1.00
4548;DHT22;2286;51.570;7.090;2023-04-01T12:20:39;10.40;1.00
4548;DHT22;2286;51.570;7.090;2023-04-01T12:26:10;10.30;1.00
4548;DHT22;2286;51.570;7.090;2023-04-01T12:28:49;10.30;1.00
4548;DHT22;2286;51.570;7.090;2023-04-01T12:31:34;10.30;1.00
4548;DHT22;2286;51.570;7.090;2023-04-01T12:34:53;10.30;1.00
4548;DHT22;2286;51.570;7.090;2023-04-01T12:37:34;10.30;27.40
4548;DHT22;2286;51.570;7.090;2023-04-01T12:40:27;10.40;51.50
4548;DHT22;2286;51.570;7.090;2023-04-01T12:43:09;10.30;42.30
4548;DHT22;2286;51.570;7.090;2023-04-01T12:45:44;10.40;39.60
4548;DHT22;2286;51.570;7.090;2023-04-01T12:48:59;10.40;66.80
4548;DHT22;2286;51.570;7.090;2023-04-01T12:51:53;10.30;71.30
4548;DHT22;2286;51.570;7.090;2023-04-01T12:57:38;10.30;66.50
4548;DHT22;2286;51.570;7.090;2023-04-01T13:00:23;10.30;99.90
4548;DHT22;2286;51.570;7.090;2023-04-01T13:03:04;10.40;99.90
4548;DHT22;2286;51.570;7.090;2023-04-01T13:08:34;10.50;99.90
4548;DHT22;2286;51.570;7.090;2023-04-01T13:11:09;10.40;99.90
4548;DHT22;2286;51.570;7.090;2023-04-01T13:13:53;10.50;99.90
4548;DHT22;2286;51.570;7.090;2023-04-01T13:16:28;10.50;99.90
4548;DHT22;2286;51.570;7.090;2023-04-01T13:19:00;10.60;99.90
4548;DHT22;2286;51.570;7.090;2023-04-01T13:21:38;10.50;1.00
4548;DHT22;2286;51.570;7.090;2023-04-01T13:24:17;10.50;1.00
4548;DHT22;2286;51.570;7.090;2023-04-01T13:26:55;10.60;1.00
4548;DHT22;2286;51.570;7.090;2023-04-01T13:29:27;10.50;99.90
4548;DHT22;2286;51.570;7.090;2023-04-01T13:32:14;10.50;1.00
4548;DHT22;2286;51.570;7.090;2023-04-01T13:34:53;10.60;1.00
4548;DHT22;2286;51.570;7.090;2023-04-01T13:37:32;10.60;62.00
4548;DHT22;2286;51.570;7.090;2023-04-01T13:40:28;10.70;99.90
4548;DHT22;2286;51.570;7.090;2023-04-01T13:43:04;10.70;99.90
4548;DHT22;2286;51.570;7.090;2023-04-01T13:45:39;10.60;1.00
4548;DHT22;2286;51.570;7.090;2023-04-01T13:48:26;10.50;1.00
4548;DHT22;2286;51.570;7.090;2023-04-01T13:51:16;10.50;1.00
4548;DHT22;2286;51.570;7.090;2023-04-01T13:54:13;10.50;1.00
4548;DHT22;2286;51.570;7.090;2023-04-01T13:56:50;10.50;48.10
4548;DHT22;2286;51.570;7.090;2023-04-01T13:59:42;10.50;50.80
4548;DHT22;2286;51.570;7.090;2023-04-01T14:02:29;10.50;1.00
4548;DHT22;2286;51.570;7.090;2023-04-01T14:05:14;10.50;1.00
4548;DHT22;2286;51.570;7.090;2023-04-01T14:07:56;10.50;1.00
4548;DHT22;2286;51.570;7.090;2023-04-01T14:10:36;10.60;77.20
4548;DHT22;2286;51.570;7.090;2023-04-01T14:13:12;10.50;1.00
4548;DHT22;2286;51.570;7.090;2023-04-01T14:15:55;10.50;1.00
4548;DHT22;2286;51.570;7.090;2023-04-01T14:18:42;10.50;99.90
4548;DHT22;2286;51.570;7.090;2023-04-01T14:21:25;10.40;99.90
4548;DHT22;2286;51.570;7.090;2023-04-01T14:24:07;10.50;99.90
4548;DHT22;2286;51.570;7.090;2023-04-01T14:27:02;10.50;99.90
4548;DHT22;2286;51.570;7.090;2023-04-01T14:29:36;10.60;99.90
4548;DHT22;2286;51.570;7.090;2023-04-01T14:32:12;10.60;99.90
4548;DHT22;2286;51.570;7.090;2023-04-01T14:34:55;10.60;99.90
4548;DHT22;2286;51.570;7.090;2023-04-01T14:37:43;10.60;99.90
4548;DHT22;2286;51.570;7.090;2023-04-01T14:40:33;10.60;99.90
4548;DHT22;2286;51.570;7.090;2023-04-01T14:43:18;10.50;99.90
4548;DHT22;2286;51.570;7.090;2023-04-01T14:46:17;10.50;99.90
4548;DHT22;2286;51.570;7.090;2023-04-01T14:48:52;10.60;1.00
4548;DHT22;2286;51.570;7.090;2023-04-01T14:51:23;10.60;1.00
4548;DHT22;2286;51.570;7.090;2023-04-01T14:54:02;10.60;1.00
4548;DHT22;2286;51.570;7.090;2023-04-01T14:56:38;10.70;1.00
4548;DHT22;2286;51.570;7.090;2023-04-01T14:59:09;10.70;1.00
4548;DHT22;2286;51.570;7.090;2023-04-01T15:01:43;10.80;1.00
4548;DHT22;2286;51.570;7.090;2023-04-01T15:04:31;10.80;49.30
4548;DHT22;2286;51.570;7.090;2023-04-01T15:07:42;10.90;1.00
4548;DHT22;2286;51.570;7.090;2023-04-01T15:10:44;10.90;99.90
4548;DHT22;2286;51.570;7.090;2023-04-01T15:13:23;10.80;99.90
4548;DHT22;2286;51.570;7.090;2023-04-01T15:16:03;10.80;99.90
4548;DHT22;2286;51.570;7.090;2023-04-01T15:18:41;10.70;99.90
4548;DHT22;2286;51.570;7.090;2023-04-01T15:21:23;10.70;99.90
4548;DHT22;2286;51.570;7.090;2023-04-01T15:24:05;10.70;1.00
4548;DHT22;2286;51.570;7.090;2023-04-01T15:27:13;10.70;1.00
4548;DHT22;2286;51.570;7.090;2023-04-01T15:30:05;10.60;99.90
4548;DHT22;2286;51.570;7.090;2023-04-01T15:32:50;10.60;99.90
4548;DHT22;2286;51.570;7.090;2023-04-01T15:35:27;10.60;29.90
4548;DHT22;2286;51.570;7.090;2023-04-01T15:38:05;10.60;99.90
4548;DHT22;2286;51.570;7.090;2023-04-01T15:40:40;10.60;99.90
4548;DHT22;2286;51.570;7.090;2023-04-01T15:43:19;10.50;99.90
4548;DHT22;2286;51.570;7.090;2023-04-01T15:45:58;10.60;99.90
4548;DHT22;2286;51.570;7.090;2023-04-01T15:48:46;10.50;99.90
4548;DHT22;2286;51.570;7.090;2023-04-01T15:51:25;10.60;99.90
4548;DHT22;2286;51.570;7.090;2023-04-01T15:57:08;10.60;1.00
4548;DHT22;2286;51.570;7.090;2023-04-01T16:00:09;10.50;82.30
4548;DHT22;2286;51.570;7.090;2023-04-01T16:02:44;10.50;99.90
4548;DHT22;2286;51.570;7.090;2023-04-01T16:05:25;10.50;99.90
4548;DHT22;2286;51.570;7.090;2023-04-01T16:08:16;10.50;99.90
4548;DHT22;2286;51.570;7.090;2023-04-01T16:11:02;10.40;99.90
4548;DHT22;2286;51.570;7.090;2023-04-01T16:13:42;10.40;1.00
4548;DHT22;2286;51.570;7.090;2023-04-01T16:16:21;10.30;1.00
4548;DHT22;2286;51.570;7.090;2023-04-01T16:19:16;10.30;99.90
4548;DHT22;2286;51.570;7.090;2023-04-01T16:21:52;10.30;99.90
4548;DHT22;2286;51.570;7.090;2023-04-01T16:24:24;10.20;1.00
4548;DHT22;2286;51.570;7.090;2023-04-01T16:27:02;10.20;99.90
4548;DHT22;2286;51.570;7.090;2023-04-01T16:29:35;10.20;99.90
4548;DHT22;2286;51.570;7.090;2023-04-01T16:32:26;10.20;1.00
4548;DHT22;2286;51.570;7.090;2023-04-01T16:35:03;10.20;99.90
4548;DHT22;2286;51.570;7.090;2023-04-01T16:37:36;10.20;1.00
4548;DHT22;2286;51.570;7.090;2023-04-01T16:40:13;10.20;1.00
4548;DHT22;2286;51.570;7.090;2023-04-01T16:42:48;10.20;1.00
4548;DHT22;2286;51.570;7.090;2023-04-01T16:45:28;10.20;94.40
4548;DHT22;2286;51.570;7.090;2023-04-01T16:48:09;10.30;99.90
4548;DHT22;2286;51.570;7.090;2023-04-01T16:50:53;10.30;99.90
4548;DHT22;2286;51.570;7.090;2023-04-01T16:53:30;10.20;99.90
4548;DHT22;2286;51.570;7.090;2023-04-01T16:56:10;10.20;99.90
4548;DHT22;2286;51.570;7.090;2023-04-01T16:58:42;10.30;99.90
4548;DHT22;2286;51.570;7.090;2023-04-01T17:01:13;10.20;99.90
4548;DHT22;2286;51.570;7.090;2023-04-01T17:03:44;10.20;99.90
4548;DHT22;2286;51.570;7.090;2023-04-01T17:06:23;10.20;99.90
4548;DHT22;2286;51.570;7.090;2023-04-01T17:09:05;10.20;99.90
4548;DHT22;2286;51.570;7.090;2023-04-01T17:11:39;10.20;99.90
4548;DHT22;2286;51.570;7.090;2023-04-01T17:14:14;10.20;99.90
4548;DHT22;2286;51.570;7.090;2023-04-01T17:19:56;10.20;99.90
4548;DHT22;2286;51.570;7.090;2023-04-01T17:22:33;10.20;99.90
4548;DHT22;2286;51.570;7.090;2023-04-01T17:25:33;10.20;99.90
4548;DHT22;2286;51.570;7.090;2023-04-01T17:28:12;10.20;99.90
4548;DHT22;2286;51.570;7.090;2023-04-01T17:30:48;10.20;99.90
4548;DHT22;2286;51.570;7.090;2023-04-01T17:33:35;10.20;99.90
4548;DHT22;2286;51.570;7.090;2023-04-01T17:36:21;10.20;99.90
4548;DHT22;2286;51.570;7.090;2023-04-01T17:39:05;10.30;99.90
4548;DHT22;2286;51.570;7.090;2023-04-01T17:41:45;10.30;99.90
4548;DHT22;2286;51.570;7.090;2023-04-01T17:44:25;10.30;99.90
4548;DHT22;2286;51.570;7.090;2023-04-01T17:47:11;10.30;99.90
4548;DHT22;2286;51.570;7.090;2023-04-01T17:49:48;10.20;99.90
4548;DHT22;2286;51.570;7.090;2023-04-01T17:52:25;10.20;99.90
4548;DHT22;2286;51.570;7.090;2023-04-01T17:54:59;10.20;99.90
4548;DHT22;2286;51.570;7.090;2023-04-01T17:57:46;10.20;99.90
4548;DHT22;2286;51.570;7.090;2023-04-01T18:00:21;10.10;99.90
4548;DHT22;2286;51.570;7.090;2023-04-01T18:03:00;10.20;99.90
4548;DHT22;2286;51.570;7.090;2023-04-01T18:05:56;10.10;99.90
4548;DHT22;2286;51.570;7.090;2023-04-01T18:08:44;10.10;99.90
4548;DHT22;2286;51.570;7.090;2023-04-01T18:11:20;10.20;99.90
4548;DHT22;2286;51.570;7.090;2023-04-01T18:14:23;10.20;99.90
4548;DHT22;2286;51.570;7.090;2023-04-01T18:17:17;10.20;99.90
4548;DHT22;2286;51.570;7.090;2023-04-01T18:22:41;10.30;99.90
4548;DHT22;2286;51.570;7.090;2023-04-01T18:25:19;10.20;99.90
4548;DHT22;2286;51.570;7.090;2023-04-01T18:27:50;10.20;99.90
4548;DHT22;2286;51.570;7.090;2023-04-01T18:30:21;10.30;99.90
4548;DHT22;2286;51.570;7.090;2023-04-01T18:32:52;10.20;99.90
4548;DHT22;2286;51.570;7.090;2023-04-01T18:35:29;10.20;99.90
4548;DHT22;2286;51.570;7.090;2023-04-01T18:38:00;10.30;99.90
4548;DHT22;2286;51.570;7.090;2023-04-01T18:40:36;10.30;99.90